Aeroporto :
LOGIN :

Iscrizione | Disclaimer

   EN    FR    IT 

 










Sommario :    VFR   VFR Marginale   IFR   IFR Intensivo   IFR Molto Intensivo
Visibilità : 
Base nubi : 
>= 8 km
>= 3000ft
5 / 8 km
1000 / 3000 ft
1500m / 5 km
500 / 1000 ft
800 / 1500m
200 / 500 ft
< 800m
< 200 ft
Simboli :   Temporali  Nebbia  Neve Forte  Precipitazioni Forti  Vento > 20 kt
SIGMETs :   Varie  Temporali  Ghiacco  Turbolenza  Onda orograficha  Ceneri Vulcaniche






- Altitudine del aeroporto : 147 ft
- Codice IATA : DUS


EDDL - Düsseldorf Int.

ULTIMO METAR :
  • 101020Z 01007KT 340V050 CAVOK 18/06 Q1026 NOSIG

METARs OBSOLETI :
  • 100950Z 01008KT 350V050 CAVOK 18/08 Q1026 NOSIG
  • 100920Z 36005KT 320V020 CAVOK 16/07 Q1026 NOSIG
  • 100850Z 01003KT 260V050 CAVOK 15/07 Q1026 NOSIG
  • 100820Z 02006KT CAVOK 14/07 Q1027 NOSIG
  • 100750Z 01006KT 340V040 CAVOK 12/07 Q1027 NOSIG

TAF TAF EDDL
Valido dal 10 a 06 ore il 11 a 12 ore UTC


100500Z 1006/1112 03004KT CAVOK
BECMG 1008/1011 02009KT
BECMG 1021/1024 06003KT



MetMap, La meteo Aeronautica in un colpo d'occhio ! - Copyright ORBIFLY Dicembre 2007 - Disclaimer

ORBIFLY MET'MAP TEAM :

Programmazione e sviluppo : Alexandra Zaïnal
Concezione : Baudouin d'Aumeries
Aiuto per la programmazione : Marc-Olivier Méhu
Supporto tecnico e logistico : Manuel Goepfert
Aiuto per la traduzione : Arnaldo La Scala

Contatto : metmap@orbifly.com




FONTI E CREDITI :

   NOAA